Route Details

Aircraft Information
Group: Boeing 767-300BDSF
Types: B763
Route Data
Distance: 1007nm
Duration: 2h 29m
Origin METAR: KMIA 010653Z 09005KT 10SM FEW025 22/20 A3017 RMK AO2 SLP216 T02220200 $
Dest. METAR: MPTO 010600Z AUTO VRB01KT CAVOK 22/20 Q1012
Freight Data
(for Feb 1, 2023)
Load Factor:
97%
Manifested Cargo: 113,517lbs
Financial History
Total Freight: 804,207lbs
Average Load: 0lbs/flt
Fuel Used: 234,971lbs
Avg. Fuel Used: 0lbs/flt
Fuel Expense: $272,273
Avg. Fuel Expense: $0
Avg. Fuel Cost: $0/lbs
Total Gross Income: $1,613,360
Pilot Pay: $1,312
Total Expenses: $203,400
Total Revenue: $1,134,096
Average Revenue: $0

Capitol Logistics 748




KMIA
Miami International Airport
Miami, Florida
MPTO
General Omar Torrijos International Airport
Panama City,